Аэропорт: Нальчик. Нальчик

ICAO: URMN

METAR:
2020-08-13 11:00:00
URMN 131100Z 33006MPS 9999 -SHRA BKN039CB 24/12 Q1010 R24/010070 NOSIG RMK QFE721
METAR:
2020-08-13 08:00:00
TAF URMN 130800Z 1309/1318 04003G08MPS 9999 SCT020 TEMPO 1309/1315 VRB07G14MPS -TSRA BKN020CB